createdAt,value
2019-03-13T00:02:57.121Z,29.47
2019-03-13T00:12:58.375Z,15.47
2019-03-13T00:22:59.665Z,9.83
2019-03-13T00:33:01.341Z,11.60
2019-03-13T00:43:03.477Z,12.47
2019-03-13T00:53:05.005Z,10.93
2019-03-13T01:03:06.333Z,7.47
2019-03-13T01:13:07.682Z,8.27
2019-03-13T01:23:09.002Z,7.43
2019-03-13T01:33:10.363Z,5.13
2019-03-13T01:43:12.429Z,6.67
2019-03-13T01:53:13.788Z,7.13
2019-03-13T02:03:15.042Z,9.57
2019-03-13T02:13:16.353Z,5.03
2019-03-13T02:23:17.625Z,7.03
2019-03-13T02:33:18.902Z,5.57
2019-03-13T02:43:20.257Z,6.57
2019-03-13T02:53:21.737Z,6.10
2019-03-13T03:03:23.058Z,6.50
2019-03-13T03:13:24.397Z,4.73
2019-03-13T03:23:25.741Z,4.67
2019-03-13T03:33:27.159Z,5.63
2019-03-13T03:43:39.955Z,7.87
2019-03-13T03:53:29.718Z,5.50
2019-03-13T04:03:31.772Z,8.00
2019-03-13T04:13:33.054Z,7.27
2019-03-13T04:23:34.351Z,6.40
2019-03-13T04:33:35.638Z,7.93
2019-03-13T04:43:36.925Z,9.07
2019-03-13T04:53:38.204Z,7.13
2019-03-13T05:03:39.490Z,7.37
2019-03-13T05:13:40.777Z,12.37
2019-03-13T05:23:42.053Z,18.47
2019-03-13T05:33:43.334Z,14.77
2019-03-13T05:43:44.599Z,14.50
2019-03-13T05:53:46.631Z,10.57
2019-03-13T06:03:47.900Z,10.70
2019-03-13T06:13:50.118Z,11.00
2019-03-13T06:23:52.186Z,11.30
2019-03-13T06:33:53.543Z,9.93
2019-03-13T06:43:55.581Z,8.30
2019-03-13T06:54:02.276Z,7.53
2019-03-13T07:04:03.554Z,9.47
2019-03-13T07:14:04.841Z,8.63
2019-03-13T07:24:06.130Z,19.03
2019-03-13T07:34:07.396Z,7.33
2019-03-13T07:44:08.654Z,11.93
2019-03-13T07:54:10.682Z,10.80
2019-03-13T08:04:11.986Z,7.70
2019-03-13T08:14:13.280Z,6.40
2019-03-13T08:24:14.662Z,7.93
2019-03-13T08:34:15.939Z,7.03
2019-03-13T08:44:17.232Z,8.17
2019-03-13T08:54:18.522Z,9.67
2019-03-13T09:04:19.823Z,8.13
2019-03-13T09:14:21.121Z,5.67
2019-03-13T09:24:22.408Z,5.07
2019-03-13T15:34:13.145Z,2.77
2019-03-13T15:44:15.202Z,7.90
2019-03-13T15:54:17.253Z,10.37
2019-03-13T16:14:26.451Z,9.63
2019-03-13T16:44:42.286Z,10.63
2019-03-13T16:54:43.612Z,11.03
2019-03-13T17:04:44.982Z,12.40
2019-03-13T17:14:46.367Z,25.50
2019-03-13T17:24:53.419Z,83.67
2019-03-13T17:34:55.470Z,46.60
2019-03-13T17:44:56.764Z,30.87
2019-03-13T17:54:58.059Z,22.37
2019-03-13T18:04:59.387Z,18.83
2019-03-13T18:15:00.712Z,18.80
2019-03-13T18:25:02.741Z,16.20
2019-03-13T18:35:04.032Z,16.03
2019-03-13T18:45:06.094Z,14.87
2019-03-13T18:55:07.345Z,15.20
2019-03-13T19:05:08.608Z,15.43
2019-03-13T19:15:09.902Z,14.53
2019-03-13T19:25:11.188Z,6.63
2019-03-13T19:35:12.473Z,9.00
2019-03-13T19:45:13.804Z,10.37
2019-03-13T19:55:15.079Z,8.77
2019-03-13T20:05:16.388Z,8.83
2019-03-13T20:15:17.645Z,9.37
2019-03-13T20:25:18.951Z,11.03
2019-03-13T20:35:20.210Z,13.30
2019-03-13T20:45:21.473Z,12.50
2019-03-13T20:55:23.506Z,14.03
2019-03-13T21:05:25.599Z,15.73
2019-03-13T21:15:26.889Z,13.83
2019-03-13T21:25:28.201Z,42.50
2019-03-13T21:35:30.608Z,33.77
2019-03-13T21:45:41.101Z,22.47
2019-03-13T21:55:36.106Z,15.67
2019-03-13T22:05:38.149Z,16.60
2019-03-13T22:25:45.914Z,17.43
2019-03-13T22:35:47.938Z,20.00
2019-03-13T22:45:49.974Z,22.33
2019-03-13T22:55:51.240Z,18.40
2019-03-13T23:05:53.301Z,22.60
2019-03-13T23:15:54.575Z,20.03
2019-03-13T23:25:55.847Z,24.27
2019-03-13T23:35:57.889Z,22.07
2019-03-13T23:45:59.162Z,25.13
2019-03-13T23:56:01.209Z,38.00
